Wahpeton, Iowa
Current Conditions -  °F | °C
As of 10:13 AM on Wednesday 22 Oct 2014 (Local Time) from KMJQ Reporting Station
Clear Clear  
Wind Chill: 11°   Ceiling: Unl
Heat Index: 11°   Visibility: 10mi
Dew Point:   Wind: 17mph
Humidity: 62%   Direction: 170°S
Pressure: 30.1"   Gusts: 24mph
Location:  43.4265°N, 95.1547°W
Report Text: KMJQ 221513Z AUTO 17015G21KT 10SM CLR 11/04 A3010 RMK AO2
Loading
Personal Weather Stations






























Interactive Weather Map
Tropical Storm Tracking
New forecast layout! Learn more

10-Day Weather Forecast

Advertisements
Track Severe Weather on mobile